CBF2 weather

Belwood (Baird Field)
Ontario, Canada

Public forecast

Using degrees Celsius for public forecast. Weather courtesy of forecast.io.

Closest aviation weather report (METAR) to Belwood (Baird Field)

Closest report is Waterloo Airport, 21.1 nm (39.0 km) S. Retrieved 2019/11/21 07:09 UTC (18 minutes ago):

CYKF 210709Z AUTO 17003KT 3SM BR OVC026 M02/M03 A3019 RMK SLP236

Closest aviation forecast (TAF) to Belwood (Baird Field)

Closest forecast is Waterloo Airport, 21.1 nm (39.0 km) S. Retrieved 2019/11/21 08:39 UTC (0 seconds ago):

TAF CYKF 210738Z 2108/2120 VRB03KT 3SM BR OVC025 TEMPO 2108/2115 6SM BR PROB30 2108/2114 1/2SM FZFG FM211500 18010G20KT P6SM BKN015 BKN100 OVC200 FM211700 18012G22KT P6SM SCT020 OVC100 FM211900 18012G22KT P6SM -RA BKN020 OVC080 RMK FCST BASED ON AUTO OBS NXT FCST BY 211400Z